Time;durP1;ratioP1;P1;durP2;ratioP2;P2;SDS_P1;SDS_P2;PMS_P1;PMS_P2;Temp;Humidity;BMP_temperature;BMP_pressure;BME280_temperature;BME280_humidity;BME280_pressure;Samples;Min_cycle;Max_cycle;Signal;HPM_P1;HPM_P2
2022/11/01 00:01:08;;;;;;;10.20;5.57;;;;;;;;;;4957557;28;20436;-56
2022/11/01 00:03:34;;;;;;;11.40;5.87;;;;;;;;;;4985535;28;20435;-57
2022/11/01 00:06:00;;;;;;;7.30;5.07;;;;;;;;;;4977626;28;21707;-57
2022/11/01 00:08:26;;;;;;;8.20;5.20;;;;;;;;;;4981876;28;20498;-57
2022/11/01 00:10:51;;;;;;;7.63;5.40;;;;;;;;;;4974126;28;20472;-56
2022/11/01 00:13:17;;;;;;;9.07;5.40;;;;;;;;;;4980069;28;20446;-55
2022/11/01 00:15:44;;;;;;;8.63;5.50;;;;;;;;;;4966681;28;20532;-60
2022/11/01 00:18:10;;;;;;;10.07;5.77;;;;;;;;;;4967984;28;20434;-56
2022/11/01 00:20:36;;;;;;;10.60;5.57;;;;;;;;;;4973110;28;20460;-54
2022/11/01 00:23:02;;;;;;;7.67;5.57;;;;;;;;;;4968226;28;20437;-56
2022/11/01 00:25:28;;;;;;;11.63;6.10;;;;;;;;;;4976742;28;20531;-56
2022/11/01 00:27:54;;;;;;;10.80;5.30;;;;;;;;;;4960078;28;20481;-56
2022/11/01 00:30:20;;;;;;;7.80;4.77;;;;;;;;;;4975171;28;20447;-55
2022/11/01 00:32:46;;;;;;;7.30;6.60;;;;;;;;;;4980040;28;20449;-56
2022/11/01 00:35:12;;;;;;;10.93;5.40;;;;;;;;;;4978800;28;20485;-56
2022/11/01 00:37:38;;;;;;;11.43;6.33;;;;;;;;;;4945979;28;20452;-56
2022/11/01 00:40:04;;;;;;;16.23;6.17;;;;;;;;;;4987370;28;20440;-54
2022/11/01 00:42:30;;;;;;;8.13;5.77;;;;;;;;;;4968010;28;20496;-55
2022/11/01 00:44:56;;;;;;;11.20;5.40;;;;;;;;;;4987124;28;20856;-56
2022/11/01 00:47:22;;;;;;;10.07;5.13;;;;;;;;;;4958595;28;20475;-56
2022/11/01 00:49:48;;;;;;;5.30;4.57;;;;;;;;;;5004316;28;20512;-56
2022/11/01 00:52:14;;;;;;;7.47;5.30;;;;;;;;;;4964264;28;20503;-56
2022/11/01 00:54:40;;;;;;;8.80;4.60;;;;;;;;;;4983020;28;20433;-56
2022/11/01 00:57:06;;;;;;;6.80;5.23;;;;;;;;;;4974153;28;20435;-55
2022/11/01 00:59:32;;;;;;;8.77;5.63;;;;;;;;;;4985278;28;20437;-54
2022/11/01 01:01:58;;;;;;;9.47;5.43;;;;;;;;;;4980448;28;20441;-55
2022/11/01 01:04:23;;;;;;;10.03;5.60;;;;;;;;;;4986337;28;20264;-56
2022/11/01 01:06:49;;;;;;;5.40;4.60;;;;;;;;;;4984584;28;20481;-56
2022/11/01 01:09:16;;;;;;;10.27;5.90;;;;;;;;;;4986669;28;20531;-57
2022/11/01 01:11:41;;;;;;;7.17;5.27;;;;;;;;;;4947594;28;20460;-57
2022/11/01 01:14:07;;;;;;;11.10;4.60;;;;;;;;;;4979052;28;20484;-57
2022/11/01 01:16:34;;;;;;;6.80;4.77;;;;;;;;;;4970989;28;20825;-56
2022/11/01 01:19:00;;;;;;;6.77;4.50;;;;;;;;;;4974116;28;20449;-56
2022/11/01 01:21:26;;;;;;;8.17;4.83;;;;;;;;;;4967308;28;20786;-57
2022/11/01 01:23:53;;;;;;;8.00;4.67;;;;;;;;;;4970999;28;20465;-56
2022/11/01 01:26:19;;;;;;;9.97;4.87;;;;;;;;;;4979054;28;20524;-55
2022/11/01 01:28:45;;;;;;;7.33;4.23;;;;;;;;;;4981588;28;20536;-56
2022/11/01 01:31:11;;;;;;;8.20;4.37;;;;;;;;;;4979476;28;20444;-58
2022/11/01 01:33:37;;;;;;;5.90;4.40;;;;;;;;;;4961388;28;20453;-54
2022/11/01 01:36:04;;;;;;;9.60;5.23;;;;;;;;;;4980013;28;20441;-55
2022/11/01 01:38:30;;;;;;;8.63;4.37;;;;;;;;;;4976667;28;20444;-56
2022/11/01 01:41:54;;;;;;;14.57;4.70;;;;;;;;;;4977420;28;20843;-56
2022/11/01 01:43:45;;;;;;;6.80;4.33;;;;;;;;;;4953006;28;20461;-56
2022/11/01 01:46:11;;;;;;;10.53;4.30;;;;;;;;;;4983852;28;21018;-58
2022/11/01 01:48:37;;;;;;;6.50;4.57;;;;;;;;;;4978623;28;20492;-58
2022/11/01 01:51:04;;;;;;;6.57;4.63;;;;;;;;;;4984549;28;20432;-55
2022/11/01 01:53:34;;;;;;;6.13;4.47;;;;;;;;;;4960951;28;20929;-56
2022/11/01 01:56:10;;;;;;;5.97;4.37;;;;;;;;;;4986454;28;21298;-57
2022/11/01 01:58:37;;;;;;;10.63;4.50;;;;;;;;;;4979092;28;20425;-55
2022/11/01 02:01:03;;;;;;;7.13;5.23;;;;;;;;;;4986556;28;20458;-56
2022/11/01 02:03:30;;;;;;;8.73;4.17;;;;;;;;;;4969446;28;20470;-56
2022/11/01 02:05:58;;;;;;;7.73;4.47;;;;;;;;;;4977224;28;20441;-56
2022/11/01 02:08:27;;;;;;;9.33;4.87;;;;;;;;;;4976668;28;20578;-56
2022/11/01 02:10:56;;;;;;;8.50;4.47;;;;;;;;;;4961371;28;20444;-56
2022/11/01 02:13:22;;;;;;;9.77;5.10;;;;;;;;;;4983689;28;20420;-55
2022/11/01 02:16:07;;;;;;;8.67;4.50;;;;;;;;;;4946468;28;20782;-56
2022/11/01 02:18:42;;;;;;;7.07;4.83;;;;;;;;;;4985109;28;20433;-56
2022/11/01 02:21:14;;;;;;;7.93;4.00;;;;;;;;;;4971834;28;20452;-55
2022/11/01 02:23:53;;;;;;;8.53;4.77;;;;;;;;;;4966742;28;20448;-56
2022/11/01 02:26:38;;;;;;;11.73;4.60;;;;;;;;;;4971475;28;21196;-56
2022/11/01 02:29:22;;;;;;;5.37;4.87;;;;;;;;;;4985802;28;20425;-56
2022/11/01 02:31:58;;;;;;;9.53;4.43;;;;;;;;;;4982590;28;20565;-57
2022/11/01 02:34:42;;;;;;;7.73;6.07;;;;;;;;;;4981210;28;20440;-55
2022/11/01 02:37:18;;;;;;;8.63;4.93;;;;;;;;;;4986359;28;20986;-56
2022/11/01 02:39:47;;;;;;;6.63;4.40;;;;;;;;;;4981462;28;20435;-55
2022/11/01 02:42:14;;;;;;;7.80;4.67;;;;;;;;;;4987573;28;20818;-56
2022/11/01 02:44:41;;;;;;;7.30;5.00;;;;;;;;;;4963653;28;20523;-57
2022/11/01 02:47:07;;;;;;;6.37;3.90;;;;;;;;;;4991603;28;20548;-57
2022/11/01 02:49:34;;;;;;;9.50;5.03;;;;;;;;;;4947934;28;23590;-56
2022/11/01 02:52:00;;;;;;;11.07;3.87;;;;;;;;;;4988565;28;20444;-59
2022/11/01 02:54:47;;;;;;;5.47;4.37;;;;;;;;;;4956043;28;20463;-56
2022/11/01 02:57:33;;;;;;;7.27;6.33;;;;;;;;;;4992047;28;20432;-55
2022/11/01 03:00:03;;;;;;;7.00;4.90;;;;;;;;;;4984094;28;20471;-55
2022/11/01 03:02:40;;;;;;;7.83;4.27;;;;;;;;;;4981431;28;20862;-56
2022/11/01 03:05:12;;;;;;;8.43;4.70;;;;;;;;;;4984830;28;20432;-54
2022/11/01 03:07:38;;;;;;;7.43;4.57;;;;;;;;;;4985855;28;20900;-55
2022/11/01 03:10:05;;;;;;;7.63;4.80;;;;;;;;;;4978839;28;20437;-56
2022/11/01 03:12:32;;;;;;;5.90;4.60;;;;;;;;;;5001558;28;20497;-55
2022/11/01 03:15:03;;;;;;;8.23;4.43;;;;;;;;;;4967685;28;21020;-56
2022/11/01 03:17:40;;;;;;;8.20;4.50;;;;;;;;;;4986574;28;20823;-55
2022/11/01 03:20:07;;;;;;;6.77;4.57;;;;;;;;;;4946403;28;20438;-56
2022/11/01 03:22:42;;;;;;;6.90;4.60;;;;;;;;;;4988599;28;20476;-55
2022/11/01 03:27:56;;;;;;;6.97;4.43;;;;;;;;;;4986190;28;20535;-55
2022/11/01 03:30:22;;;;;;;4.87;4.30;;;;;;;;;;4958999;28;20454;-55
2022/11/01 03:32:49;;;;;;;7.43;4.67;;;;;;;;;;4990595;28;20503;-56
2022/11/01 03:35:19;;;;;;;9.90;3.93;;;;;;;;;;4962387;28;20549;-57
2022/11/01 03:37:45;;;;;;;10.37;4.53;;;;;;;;;;5002436;28;20819;-56
2022/11/01 03:40:11;;;;;;;5.43;3.83;;;;;;;;;;4985238;28;20433;-56
2022/11/01 03:42:37;;;;;;;8.03;3.90;;;;;;;;;;4989201;28;20284;-56
2022/11/01 03:45:04;;;;;;;5.57;3.90;;;;;;;;;;4981903;28;20532;-55
2022/11/01 03:47:30;;;;;;;6.60;4.53;;;;;;;;;;4999403;28;20484;-56
2022/11/01 03:50:19;;;;;;;7.47;4.07;;;;;;;;;;4983952;28;20846;-56
2022/11/01 03:52:45;;;;;;;6.00;3.90;;;;;;;;;;4987948;28;20527;-56
2022/11/01 03:55:18;;;;;;;7.43;4.30;;;;;;;;;;4945042;28;21013;-56
2022/11/01 03:57:54;;;;;;;6.00;3.83;;;;;;;;;;4989246;28;20452;-57
2022/11/01 04:00:21;;;;;;;6.40;4.00;;;;;;;;;;4980858;28;20796;-55
2022/11/01 04:02:47;;;;;;;8.63;3.40;;;;;;;;;;4988067;28;20445;-56
2022/11/01 04:05:13;;;;;;;10.83;3.73;;;;;;;;;;4958277;28;20985;-56
2022/11/01 04:07:39;;;;;;;5.77;3.17;;;;;;;;;;4988853;28;20477;-56
2022/11/01 04:10:05;;;;;;;6.40;4.07;;;;;;;;;;4979772;28;20449;-56
2022/11/01 04:12:31;;;;;;;8.17;4.00;;;;;;;;;;4988459;28;20567;-56
2022/11/01 04:20:33;;;;;;;4.90;3.50;;;;;;;;;;4979956;28;20502;-54
2022/11/01 04:22:59;;;;;;;5.30;3.10;;;;;;;;;;4987397;28;20441;-55
2022/11/01 04:25:25;;;;;;;4.87;3.23;;;;;;;;;;4963935;28;20463;-57
2022/11/01 04:27:51;;;;;;;9.53;3.17;;;;;;;;;;4987251;28;20488;-58
2022/11/01 04:30:17;;;;;;;5.10;2.60;;;;;;;;;;4950539;28;20537;-58
2022/11/01 04:32:43;;;;;;;5.53;2.77;;;;;;;;;;4986079;28;20441;-58
2022/11/01 04:35:11;;;;;;;4.93;2.83;;;;;;;;;;4979296;28;20566;-58
2022/11/01 04:37:37;;;;;;;6.20;3.43;;;;;;;;;;4979747;28;20456;-58
2022/11/01 04:40:03;;;;;;;6.80;3.43;;;;;;;;;;4959623;28;20460;-58
2022/11/01 04:42:29;;;;;;;7.10;3.20;;;;;;;;;;4986744;28;20448;-56
2022/11/01 04:44:55;;;;;;;4.20;2.73;;;;;;;;;;4964289;28;20467;-58
2022/11/01 04:47:21;;;;;;;5.80;3.03;;;;;;;;;;4987903;28;20511;-56
2022/11/01 04:49:47;;;;;;;6.00;2.50;;;;;;;;;;4988405;28;20441;-56
2022/11/01 04:52:13;;;;;;;7.50;3.93;;;;;;;;;;4989989;28;20433;-56
2022/11/01 04:54:39;;;;;;;10.77;3.53;;;;;;;;;;4987534;28;20243;-56
2022/11/01 04:57:05;;;;;;;5.80;2.47;;;;;;;;;;4993261;28;20513;-55
2022/11/01 04:59:31;;;;;;;4.70;2.70;;;;;;;;;;4949975;28;20531;-56
2022/11/01 05:01:56;;;;;;;5.00;2.97;;;;;;;;;;4985105;28;20429;-56
2022/11/01 05:04:22;;;;;;;5.13;2.73;;;;;;;;;;4954126;28;21387;-56
2022/11/01 05:06:48;;;;;;;5.50;3.00;;;;;;;;;;4988590;28;20506;-57
2022/11/01 05:09:14;;;;;;;10.63;2.70;;;;;;;;;;4980609;28;20526;-58
2022/11/01 05:11:40;;;;;;;3.70;2.20;;;;;;;;;;4992576;28;20444;-58
2022/11/01 05:14:06;;;;;;;6.33;3.23;;;;;;;;;;4952947;28;20816;-58
2022/11/01 05:16:32;;;;;;;5.00;2.13;;;;;;;;;;4986157;28;20916;-58
2022/11/01 05:18:58;;;;;;;3.30;2.43;;;;;;;;;;4978728;28;20468;-58
2022/11/01 05:21:24;;;;;;;5.20;2.80;;;;;;;;;;4981918;28;20667;-56
2022/11/01 05:23:50;;;;;;;3.37;2.43;;;;;;;;;;4979373;28;20445;-58
2022/11/01 05:26:16;;;;;;;2.50;1.80;;;;;;;;;;4982237;28;20487;-56
2022/11/01 05:28:42;;;;;;;3.63;2.17;;;;;;;;;;4965299;28;20927;-58
2022/11/01 05:31:08;;;;;;;6.70;3.60;;;;;;;;;;4982722;28;20923;-57
2022/11/01 05:33:34;;;;;;;5.60;2.60;;;;;;;;;;4946396;28;20552;-57
2022/11/01 05:36:00;;;;;;;8.27;2.60;;;;;;;;;;4982990;28;21026;-56
2022/11/01 05:38:26;;;;;;;3.30;1.80;;;;;;;;;;4957076;28;20603;-55
2022/11/01 05:40:52;;;;;;;8.57;2.33;;;;;;;;;;4991474;28;20971;-57
2022/11/01 05:43:19;;;;;;;2.60;1.67;;;;;;;;;;4981706;28;20441;-57
2022/11/01 05:45:45;;;;;;;4.70;2.63;;;;;;;;;;4946747;28;20455;-56
2022/11/01 05:48:10;;;;;;;2.63;1.50;;;;;;;;;;4986785;28;20496;-57
2022/11/01 05:50:36;;;;;;;5.90;2.20;;;;;;;;;;4979842;28;20436;-57
2022/11/01 05:53:09;;;;;;;4.97;2.10;;;;;;;;;;4986965;28;20429;-58
2022/11/01 05:55:35;;;;;;;2.70;1.67;;;;;;;;;;4962964;28;20428;-57
2022/11/01 05:58:01;;;;;;;3.43;1.63;;;;;;;;;;4981697;28;20514;-58
2022/11/01 06:00:27;;;;;;;5.60;2.27;;;;;;;;;;4987141;28;20433;-59
2022/11/01 06:02:53;;;;;;;3.10;1.87;;;;;;;;;;4980562;28;20433;-57
2022/11/01 06:05:19;;;;;;;4.10;1.63;;;;;;;;;;4986186;28;20459;-57
2022/11/01 06:07:45;;;;;;;3.30;1.30;;;;;;;;;;4947071;28;20528;-56
2022/11/01 06:10:11;;;;;;;3.73;1.43;;;;;;;;;;4985516;28;20504;-58
2022/11/01 06:12:37;;;;;;;4.90;1.80;;;;;;;;;;4980221;28;20421;-59
2022/11/01 06:15:03;;;;;;;3.50;1.80;;;;;;;;;;4983644;28;20440;-58
2022/11/01 06:17:29;;;;;;;2.43;1.60;;;;;;;;;;4960037;28;20186;-58
2022/11/01 06:19:55;;;;;;;2.27;1.50;;;;;;;;;;4984473;28;20455;-56
2022/11/01 06:22:21;;;;;;;3.67;1.50;;;;;;;;;;4982774;28;20240;-58
2022/11/01 06:24:47;;;;;;;4.90;1.90;;;;;;;;;;4988550;28;20817;-57
2022/11/01 06:27:13;;;;;;;5.13;2.63;;;;;;;;;;4962968;28;20594;-58
2022/11/01 06:29:39;;;;;;;2.60;1.33;;;;;;;;;;4987035;28;20543;-59
2022/11/01 06:32:05;;;;;;;1.80;1.20;;;;;;;;;;4985318;28;20520;-59
2022/11/01 06:34:31;;;;;;;3.57;1.40;;;;;;;;;;4988712;28;21298;-58
2022/11/01 06:36:57;;;;;;;3.70;1.30;;;;;;;;;;4983835;28;20508;-58
2022/11/01 06:39:23;;;;;;;10.70;1.40;;;;;;;;;;4981944;28;20430;-58
2022/11/01 06:41:57;;;;;;;1.73;1.10;;;;;;;;;;4972990;28;20459;-55
2022/11/01 06:44:23;;;;;;;1.87;1.13;;;;;;;;;;4967124;28;20511;-58
2022/11/01 06:46:49;;;;;;;1.90;1.03;;;;;;;;;;4974062;28;20884;-58
2022/11/01 06:49:15;;;;;;;1.80;0.83;;;;;;;;;;4973036;28;20506;-57
2022/11/01 06:51:41;;;;;;;3.73;1.33;;;;;;;;;;4980964;28;20447;-56
2022/11/01 06:54:07;;;;;;;2.90;1.00;;;;;;;;;;4965400;28;20433;-56
2022/11/01 06:56:33;;;;;;;2.47;1.10;;;;;;;;;;4991882;28;20984;-56
2022/11/01 06:59:00;;;;;;;1.70;1.00;;;;;;;;;;4964515;28;20831;-56
2022/11/01 07:01:27;;;;;;;1.50;0.90;;;;;;;;;;4985005;28;20476;-56
2022/11/01 07:03:52;;;;;;;1.60;1.00;;;;;;;;;;4984865;28;20529;-57
2022/11/01 07:06:19;;;;;;;1.70;1.20;;;;;;;;;;4959891;28;20456;-56
2022/11/01 07:08:45;;;;;;;4.93;1.40;;;;;;;;;;4982163;28;20538;-56
2022/11/01 07:11:11;;;;;;;1.60;0.70;;;;;;;;;;4985860;28;20445;-58
2022/11/01 07:13:37;;;;;;;5.70;0.87;;;;;;;;;;4980818;28;20464;-57
2022/11/01 07:16:04;;;;;;;1.50;0.90;;;;;;;;;;4942476;28;20445;-57
2022/11/01 07:18:30;;;;;;;2.63;0.90;;;;;;;;;;4986351;28;20467;-56
2022/11/01 07:20:56;;;;;;;1.20;0.90;;;;;;;;;;4984542;28;20492;-57
2022/11/01 07:23:22;;;;;;;1.30;0.80;;;;;;;;;;4990700;28;20439;-57
2022/11/01 07:25:51;;;;;;;3.57;1.10;;;;;;;;;;4961346;28;20831;-58
2022/11/01 07:28:17;;;;;;;1.43;1.00;;;;;;;;;;4984130;28;20536;-56
2022/11/01 07:30:46;;;;;;;1.37;0.83;;;;;;;;;;4985578;28;20464;-58
2022/11/01 07:33:13;;;;;;;1.80;1.30;;;;;;;;;;4986943;28;20425;-58
2022/11/01 07:35:39;;;;;;;2.63;1.10;;;;;;;;;;4959448;28;21007;-58
2022/11/01 07:38:05;;;;;;;1.67;0.73;;;;;;;;;;4986640;28;20650;-57
2022/11/01 07:40:31;;;;;;;1.97;0.73;;;;;;;;;;4980698;28;20516;-57
2022/11/01 07:42:58;;;;;;;1.40;0.80;;;;;;;;;;4984527;28;20811;-57
2022/11/01 07:45:24;;;;;;;1.10;0.60;;;;;;;;;;4981450;28;20839;-56
2022/11/01 07:47:50;;;;;;;2.23;0.70;;;;;;;;;;4988839;28;20508;-56
2022/11/01 07:50:24;;;;;;;2.30;0.77;;;;;;;;;;4966690;28;20966;-57
2022/11/01 07:53:26;;;;;;;1.53;0.73;;;;;;;;;;4981047;28;21053;-57
2022/11/01 07:55:52;;;;;;;1.20;0.80;;;;;;;;;;4932446;28;20453;-56
2022/11/01 07:58:18;;;;;;;1.50;0.80;;;;;;;;;;4973546;28;20528;-56
2022/11/01 08:00:44;;;;;;;1.40;0.70;;;;;;;;;;4959348;28;20464;-56
2022/11/01 08:03:11;;;;;;;1.93;1.00;;;;;;;;;;4989195;28;20433;-55
2022/11/01 08:05:37;;;;;;;1.20;0.70;;;;;;;;;;4985066;28;21135;-57
2022/11/01 08:08:04;;;;;;;1.20;0.70;;;;;;;;;;4993383;28;20488;-56
2022/11/01 08:10:30;;;;;;;2.40;0.70;;;;;;;;;;4969359;28;20448;-54
2022/11/01 08:13:00;;;;;;;3.30;0.70;;;;;;;;;;4990754;28;20486;-56
2022/11/01 08:15:26;;;;;;;6.20;0.80;;;;;;;;;;4961790;28;20440;-57
2022/11/01 08:17:54;;;;;;;1.20;0.60;;;;;;;;;;4988350;28;20441;-57
2022/11/01 08:20:20;;;;;;;3.30;0.87;;;;;;;;;;4985340;28;20439;-56
2022/11/01 08:22:46;;;;;;;1.87;0.97;;;;;;;;;;4989294;28;20438;-59
2022/11/01 08:25:17;;;;;;;2.40;1.00;;;;;;;;;;4962834;28;21085;-57
2022/11/01 08:27:44;;;;;;;1.83;1.10;;;;;;;;;;4978461;28;20484;-55
2022/11/01 08:30:11;;;;;;;1.50;1.00;;;;;;;;;;4969044;28;20441;-58
2022/11/01 08:32:37;;;;;;;3.50;1.07;;;;;;;;;;4976634;28;20965;-57
2022/11/01 08:35:03;;;;;;;1.30;0.67;;;;;;;;;;4984229;28;20425;-58
2022/11/01 08:37:29;;;;;;;1.10;0.67;;;;;;;;;;4982880;28;20946;-58
2022/11/01 08:39:55;;;;;;;1.63;0.80;;;;;;;;;;4987217;28;20461;-56
2022/11/01 08:42:21;;;;;;;1.83;0.90;;;;;;;;;;4983545;28;20472;-58
2022/11/01 08:44:47;;;;;;;1.60;0.90;;;;;;;;;;4980583;28;20449;-59
2022/11/01 08:47:13;;;;;;;2.40;1.10;;;;;;;;;;4966040;28;21006;-58
2022/11/01 08:49:39;;;;;;;1.50;0.67;;;;;;;;;;4988255;28;20449;-57
2022/11/01 08:52:05;;;;;;;1.77;0.80;;;;;;;;;;4983025;28;20436;-58
2022/11/01 08:54:31;;;;;;;1.30;0.70;;;;;;;;;;4986877;28;21019;-59
2022/11/01 08:56:57;;;;;;;2.03;0.80;;;;;;;;;;4983889;28;20820;-59
2022/11/01 08:59:23;;;;;;;1.73;1.00;;;;;;;;;;4984088;28;20445;-59
2022/11/01 09:01:49;;;;;;;1.67;1.07;;;;;;;;;;4948732;28;20529;-57
2022/11/01 09:04:15;;;;;;;1.70;0.80;;;;;;;;;;4948088;28;20937;-58
2022/11/01 09:06:41;;;;;;;2.03;0.90;;;;;;;;;;4980062;28;20505;-58
2022/11/01 09:09:09;;;;;;;2.70;0.80;;;;;;;;;;4954501;28;20672;-59
2022/11/01 09:11:35;;;;;;;1.50;0.70;;;;;;;;;;4985186;28;20519;-58
2022/11/01 09:14:01;;;;;;;1.57;1.03;;;;;;;;;;4958232;28;20515;-57
2022/11/01 09:16:27;;;;;;;1.73;1.17;;;;;;;;;;4982767;28;20438;-57
2022/11/01 09:18:52;;;;;;;1.20;0.77;;;;;;;;;;4961832;28;20263;-58
2022/11/01 09:21:19;;;;;;;1.53;0.80;;;;;;;;;;4980645;28;20891;-59
2022/11/01 09:23:45;;;;;;;1.40;0.63;;;;;;;;;;4982902;28;20524;-59
2022/11/01 09:26:11;;;;;;;2.20;1.40;;;;;;;;;;4975055;28;20516;-59
2022/11/01 09:28:37;;;;;;;1.43;0.90;;;;;;;;;;4953097;28;20707;-59
2022/11/01 09:31:04;;;;;;;1.23;0.63;;;;;;;;;;4983023;28;20872;-57
2022/11/01 09:33:34;;;;;;;1.50;0.90;;;;;;;;;;4949345;28;20437;-58
2022/11/01 09:36:00;;;;;;;1.30;0.80;;;;;;;;;;4961991;28;20453;-56
2022/11/01 09:38:26;;;;;;;1.20;0.60;;;;;;;;;;4985198;28;20807;-58
2022/11/01 09:40:56;;;;;;;1.30;0.70;;;;;;;;;;4960944;28;20453;-58
2022/11/01 09:43:22;;;;;;;1.20;0.60;;;;;;;;;;4980024;28;20449;-58
2022/11/01 09:45:49;;;;;;;1.57;0.80;;;;;;;;;;4958086;28;20599;-59
2022/11/01 09:48:15;;;;;;;1.40;0.90;;;;;;;;;;4974518;28;20578;-58
2022/11/01 09:50:42;;;;;;;1.60;0.90;;;;;;;;;;4958659;28;20444;-58
2022/11/01 09:53:12;;;;;;;1.50;0.80;;;;;;;;;;4977110;28;20446;-58
2022/11/01 09:55:53;;;;;;;2.40;0.70;;;;;;;;;;4988838;28;20472;-58
2022/11/01 09:58:37;;;;;;;1.57;0.90;;;;;;;;;;4971822;28;20441;-58
2022/11/01 10:01:03;;;;;;;1.60;0.90;;;;;;;;;;4956100;28;20548;-58
2022/11/01 10:03:33;;;;;;;2.30;0.70;;;;;;;;;;4974331;28;20433;-58
2022/11/01 10:06:19;;;;;;;2.03;0.70;;;;;;;;;;4940141;28;20928;-58
2022/11/01 10:09:08;;;;;;;1.90;0.80;;;;;;;;;;4983361;28;20495;-59
2022/11/01 10:11:37;;;;;;;1.70;0.80;;;;;;;;;;4977736;28;20950;-59
2022/11/01 10:14:09;;;;;;;1.23;0.73;;;;;;;;;;4978671;28;20531;-59
2022/11/01 10:16:35;;;;;;;2.80;0.80;;;;;;;;;;4969353;28;21112;-57
2022/11/01 10:19:10;;;;;;;1.33;0.70;;;;;;;;;;4965903;28;20433;-58
2022/11/01 10:21:41;;;;;;;3.87;0.97;;;;;;;;;;4967430;28;20445;-60
2022/11/01 10:24:07;;;;;;;1.40;0.97;;;;;;;;;;4975961;28;21238;-59
2022/11/01 10:26:34;;;;;;;3.37;0.97;;;;;;;;;;4978214;28;20973;-59
2022/11/01 10:29:13;;;;;;;1.50;0.83;;;;;;;;;;4982506;28;20428;-58
2022/11/01 10:31:40;;;;;;;3.63;0.70;;;;;;;;;;4987100;28;20801;-59
2022/11/01 10:34:26;;;;;;;1.70;0.97;;;;;;;;;;4965183;28;20438;-59
2022/11/01 10:36:53;;;;;;;2.00;0.90;;;;;;;;;;4939871;28;20528;-58
2022/11/01 10:39:36;;;;;;;2.40;1.10;;;;;;;;;;4985231;28;20531;-59
2022/11/01 10:42:07;;;;;;;1.50;0.73;;;;;;;;;;4969429;28;20453;-58
2022/11/01 10:44:34;;;;;;;1.80;1.07;;;;;;;;;;4976006;28;20443;-57
2022/11/01 10:47:00;;;;;;;2.77;1.20;;;;;;;;;;4964610;28;20982;-58
2022/11/01 10:49:31;;;;;;;3.80;1.27;;;;;;;;;;4979547;28;20460;-58
2022/11/01 10:52:01;;;;;;;2.87;1.53;;;;;;;;;;4946923;28;22070;-58
2022/11/01 10:54:28;;;;;;;1.77;0.80;;;;;;;;;;4975694;28;20441;-57
2022/11/01 10:56:55;;;;;;;1.60;0.90;;;;;;;;;;4955740;28;20445;-58
2022/11/01 10:59:33;;;;;;;2.83;1.37;;;;;;;;;;4979957;28;20429;-59
2022/11/01 11:01:59;;;;;;;2.93;0.90;;;;;;;;;;4973958;28;20440;-59
2022/11/01 11:04:25;;;;;;;1.77;1.00;;;;;;;;;;4991950;28;20428;-60
2022/11/01 11:06:51;;;;;;;2.90;1.33;;;;;;;;;;4955229;28;20515;-59
2022/11/01 11:09:28;;;;;;;2.37;1.00;;;;;;;;;;4976142;28;20440;-59
2022/11/01 11:11:57;;;;;;;1.63;0.93;;;;;;;;;;4953143;28;20445;-59
2022/11/01 11:14:23;;;;;;;3.70;1.00;;;;;;;;;;4984826;28;20884;-58
2022/11/01 11:16:51;;;;;;;1.73;0.90;;;;;;;;;;4974890;28;20512;-59
2022/11/01 11:19:29;;;;;;;3.20;1.13;;;;;;;;;;4983197;28;20427;-58
2022/11/01 11:21:55;;;;;;;5.13;1.50;;;;;;;;;;4956503;28;20457;-58
2022/11/01 11:24:25;;;;;;;2.13;1.03;;;;;;;;;;4983738;28;20918;-57
2022/11/01 11:26:51;;;;;;;2.33;1.47;;;;;;;;;;4969528;28;20854;-57
2022/11/01 11:29:38;;;;;;;2.20;1.17;;;;;;;;;;4980296;28;20447;-59
2022/11/01 11:32:04;;;;;;;2.63;1.00;;;;;;;;;;4981251;28;20432;-59
2022/11/01 11:34:32;;;;;;;2.80;1.10;;;;;;;;;;4978821;28;20477;-58
2022/11/01 11:36:58;;;;;;;1.90;1.40;;;;;;;;;;4953970;28;20473;-59
2022/11/01 11:39:34;;;;;;;2.87;1.10;;;;;;;;;;4978557;28;20448;-59
2022/11/01 11:42:17;;;;;;;2.27;0.80;;;;;;;;;;4972571;28;20450;-60
2022/11/01 11:44:50;;;;;;;5.67;1.10;;;;;;;;;;4977741;28;20951;-59
2022/11/01 11:47:23;;;;;;;1.50;0.80;;;;;;;;;;4946758;28;20557;-58
2022/11/01 11:49:52;;;;;;;3.13;1.37;;;;;;;;;;4979220;28;20863;-58
2022/11/01 11:52:19;;;;;;;2.77;1.43;;;;;;;;;;4976490;28;20448;-58
2022/11/01 11:54:45;;;;;;;1.70;1.00;;;;;;;;;;4979645;28;20447;-59
2022/11/01 11:57:14;;;;;;;2.13;1.03;;;;;;;;;;4971818;28;20433;-58
2022/11/01 11:59:40;;;;;;;2.10;1.00;;;;;;;;;;4980248;28;20487;-59
2022/11/01 12:02:13;;;;;;;2.33;0.90;;;;;;;;;;4972430;28;20424;-59
2022/11/01 12:04:40;;;;;;;1.93;1.07;;;;;;;;;;4979965;28;20440;-59
2022/11/01 12:07:07;;;;;;;2.43;1.10;;;;;;;;;;4954946;28;20484;-57
2022/11/01 12:09:34;;;;;;;3.63;1.00;;;;;;;;;;4983281;28;21456;-60
2022/11/01 12:12:21;;;;;;;2.30;1.50;;;;;;;;;;4920332;28;20445;-59
2022/11/01 12:14:47;;;;;;;1.87;1.00;;;;;;;;;;4972207;28;20476;-57
2022/11/01 12:17:24;;;;;;;2.23;1.03;;;;;;;;;;4942622;28;20433;-58
2022/11/01 12:19:52;;;;;;;2.03;0.80;;;;;;;;;;4974451;28;20447;-57
2022/11/01 12:22:18;;;;;;;2.40;1.30;;;;;;;;;;4944663;28;20449;-58
2022/11/01 12:24:45;;;;;;;4.87;2.17;;;;;;;;;;4985050;28;21020;-57
2022/11/01 12:27:12;;;;;;;2.70;1.27;;;;;;;;;;4976214;28;20489;-58
2022/11/01 12:29:40;;;;;;;3.00;1.00;;;;;;;;;;4990848;28;20428;-56
2022/11/01 12:32:09;;;;;;;2.47;1.43;;;;;;;;;;4957913;28;20448;-57
2022/11/01 12:34:36;;;;;;;4.73;1.50;;;;;;;;;;4974323;28;20451;-61
2022/11/01 12:37:05;;;;;;;4.47;1.40;;;;;;;;;;4950749;28;20452;-58
2022/11/01 12:39:34;;;;;;;3.37;1.10;;;;;;;;;;4974128;28;20448;-58
2022/11/01 12:42:02;;;;;;;4.30;1.67;;;;;;;;;;4944409;28;20487;-57
2022/11/01 12:44:31;;;;;;;3.20;1.50;;;;;;;;;;4977387;28;20886;-59
2022/11/01 12:47:16;;;;;;;2.77;1.27;;;;;;;;;;4943180;28;20481;-58
2022/11/01 12:49:47;;;;;;;6.30;1.50;;;;;;;;;;4972001;28;20441;-58
2022/11/01 12:52:22;;;;;;;7.43;2.00;;;;;;;;;;4972560;28;20603;-55
2022/11/01 12:54:58;;;;;;;4.70;1.53;;;;;;;;;;4970823;28;21233;-56
2022/11/01 12:57:24;;;;;;;4.37;1.60;;;;;;;;;;4950509;28;20508;-56
2022/11/01 12:59:50;;;;;;;3.00;1.60;;;;;;;;;;4970539;28;20445;-57
2022/11/01 13:02:34;;;;;;;9.00;2.60;;;;;;;;;;4967132;28;20965;-58
2022/11/01 13:05:00;;;;;;;6.67;1.83;;;;;;;;;;4970473;28;20433;-58
2022/11/01 13:07:42;;;;;;;2.27;1.43;;;;;;;;;;4948291;28;20493;-58
2022/11/01 13:10:26;;;;;;;4.30;1.90;;;;;;;;;;4970831;28;20440;-57
2022/11/01 13:12:58;;;;;;;2.70;1.57;;;;;;;;;;4963551;28;20444;-57
2022/11/01 13:15:27;;;;;;;6.90;1.57;;;;;;;;;;4969547;28;20473;-57
2022/11/01 13:17:59;;;;;;;3.60;1.60;;;;;;;;;;4951830;28;20477;-57
2022/11/01 13:20:37;;;;;;;4.50;1.70;;;;;;;;;;4966465;28;20441;-57
2022/11/01 13:23:19;;;;;;;5.07;1.60;;;;;;;;;;4966641;28;20442;-58
2022/11/01 13:25:50;;;;;;;4.73;1.50;;;;;;;;;;4972751;28;20467;-56
2022/11/01 13:28:35;;;;;;;3.20;1.30;;;;;;;;;;4945223;28;20520;-58
2022/11/01 13:31:04;;;;;;;3.67;1.97;;;;;;;;;;4977772;28;20997;-56
2022/11/01 13:33:35;;;;;;;2.20;1.10;;;;;;;;;;4974813;28;20447;-58
2022/11/01 13:36:16;;;;;;;5.73;1.50;;;;;;;;;;4987871;28;20565;-56
2022/11/01 13:39:01;;;;;;;2.67;1.60;;;;;;;;;;4947047;28;20444;-57
2022/11/01 13:41:30;;;;;;;6.37;1.87;;;;;;;;;;4974866;28;20445;-57
2022/11/01 13:44:02;;;;;;;2.80;1.70;;;;;;;;;;4968401;28;20478;-56
2022/11/01 13:46:51;;;;;;;3.13;1.83;;;;;;;;;;4974629;28;20449;-58
2022/11/01 13:49:18;;;;;;;3.67;1.67;;;;;;;;;;4948086;28;20445;-59
2022/11/01 13:51:45;;;;;;;6.90;2.03;;;;;;;;;;4966616;28;20425;-58
2022/11/01 13:54:32;;;;;;;2.47;1.60;;;;;;;;;;4963146;28;20475;-58
2022/11/01 13:56:59;;;;;;;5.10;1.70;;;;;;;;;;4967073;28;20440;-60
2022/11/01 13:59:32;;;;;;;4.30;1.40;;;;;;;;;;4936892;28;20503;-57
2022/11/01 14:02:31;;;;;;;3.77;1.10;;;;;;;;;;4957049;28;20445;-58
2022/11/01 14:05:07;;;;;;;3.50;1.63;;;;;;;;;;4965778;28;21001;-58
2022/11/01 14:07:37;;;;;;;4.67;1.37;;;;;;;;;;4969049;28;21627;-57
2022/11/01 14:10:21;;;;;;;1.50;1.03;;;;;;;;;;4944928;28;21152;-56
2022/11/01 14:12:56;;;;;;;2.77;1.33;;;;;;;;;;4969531;28;20436;-58
2022/11/01 14:15:28;;;;;;;3.60;1.60;;;;;;;;;;4967386;28;20481;-58
2022/11/01 14:18:32;;;;;;;2.20;1.53;;;;;;;;;;4962860;28;20448;-57
2022/11/01 14:20:58;;;;;;;2.30;1.50;;;;;;;;;;4928024;28;20448;-59
2022/11/01 14:23:27;;;;;;;5.70;1.57;;;;;;;;;;4963031;28;20449;-58
2022/11/01 14:26:12;;;;;;;2.10;1.37;;;;;;;;;;4964299;28;20437;-57
2022/11/01 14:28:42;;;;;;;6.53;1.60;;;;;;;;;;4968140;28;21084;-59
2022/11/01 14:31:08;;;;;;;2.03;1.10;;;;;;;;;;4940016;28;20457;-59
2022/11/01 14:33:34;;;;;;;2.70;1.40;;;;;;;;;;4972458;28;20432;-58
2022/11/01 14:36:01;;;;;;;4.93;1.80;;;;;;;;;;4934298;28;20487;-58
2022/11/01 14:38:30;;;;;;;3.73;1.70;;;;;;;;;;4947357;28;20925;-58
2022/11/01 14:40:56;;;;;;;4.00;1.30;;;;;;;;;;4970224;28;20467;-58
2022/11/01 14:43:24;;;;;;;5.10;1.90;;;;;;;;;;4949793;28;20447;-56
2022/11/01 14:46:14;;;;;;;2.60;1.60;;;;;;;;;;4967889;28;20449;-57
2022/11/01 14:48:46;;;;;;;5.63;2.00;;;;;;;;;;4949572;28;21002;-57
2022/11/01 14:51:31;;;;;;;5.93;1.47;;;;;;;;;;4957762;28;20449;-58
2022/11/01 14:54:15;;;;;;;2.17;1.20;;;;;;;;;;4957831;28;20440;-57
2022/11/01 14:56:41;;;;;;;3.87;1.80;;;;;;;;;;4975287;28;20448;-58
2022/11/01 14:59:14;;;;;;;4.80;1.53;;;;;;;;;;4975831;28;20429;-58
2022/11/01 15:01:43;;;;;;;2.57;1.30;;;;;;;;;;4971159;28;20479;-57
2022/11/01 15:04:10;;;;;;;4.53;2.20;;;;;;;;;;4965404;28;20432;-56